Latest Coastal Weather Observations for Mandora

IDW60701

Issued at 3:15 am WST Saturday 22 November 2014 (issued every 10 minutes, with the page automatically refreshed every 10 minutes)

About coastal observations | Map of coastal stations | Coastal observations for WA | Marine services | Other Formats
Station Details ID: 004019 Name: MANDORA Lat: -19.74 Lon: 120.84 Height: 7.5 m
Data from the previous 72 hours. | See also: Recent months at Mandora
Date/Time
WST
Temp

°C
Wind Pressure Rain
since 9am
mm
Weather Cloud Vis
km
Sea
Height
m
Swell
Dir
 
Speed
knots
Gust
knots
hPa Trend Height
m
Period
s
Dir
22/03:00am 27.5 W 9 12 1006.6 - 0.0 - - - - - - -
22/02:30am 27.6 WSW 9 14 1006.5 - 0.0 - - - - - - -
22/02:00am 27.2 WSW 9 13 1006.6 - 0.0 - - - - - - -
22/01:30am 27.3 W 8 11 1006.7 - 0.0 - - - - - - -
22/01:00am 27.5 WSW 8 11 1006.8 - 0.0 - - - - - - -
22/12:30am 28.4 WSW 9 13 1006.9 - 0.0 - - - - - - -
22/12:00am 28.9 W 8 11 1007.3 - 0.0 - - - - - - -
 
Date/Time
WST
Temp

°C
Wind Pressure Rain
since 9am
mm
Weather Cloud Vis
km
Sea
Height
m
Swell
Dir
 
Speed
knots
Gust
knots
hPa Trend Height
m
Period
s
Dir
21/11:30pm 29.2 W 9 13 1007.7 - 0.0 - - - - - - -
21/11:00pm 29.5 W 9 14 1008.1 - 0.0 - - - - - - -
21/10:30pm 29.4 W 8 12 1008.4 - 0.0 - - - - - - -
21/10:00pm 29.1 W 7 10 1008.6 - 0.0 - - - - - - -
21/09:30pm 29.2 W 8 11 1008.5 - 0.0 - - - - - - -
21/09:00pm 28.8 WNW 7 8 1008.5 - 0.0 - - - - - - -
21/08:30pm 29.0 W 6 8 1008.3 - 0.0 - - - - - - -
21/08:00pm 28.8 WNW 6 9 1008.2 - 0.0 - - - - - - -
21/07:30pm 29.2 W 7 10 1007.9 - 0.0 - - - - - - -
21/07:00pm 29.3 WNW 7 9 1007.8 - 0.0 - - - - - - -
21/06:30pm 30.1 WNW 9 14 1007.3 - 0.0 - - - - - - -
21/06:00pm 30.9 WNW 11 15 1007.2 - 0.0 - - - - - - -
21/05:30pm 32.1 WNW 10 14 1007.0 - 0.0 - - - - - - -
21/05:00pm 32.4 WNW 11 17 1006.7 - 0.0 - - - - - - -
21/04:30pm 32.6 WNW 10 16 1006.6 - 0.0 - - - - - - -
21/04:00pm 33.6 WNW 10 17 1006.4 - 0.0 - - - - - - -
21/03:30pm 34.0 WNW 14 18 1006.5 - 0.0 - - - - - - -
21/03:00pm 34.7 NW 12 19 1006.7 - 0.0 - - - - - - -
21/02:30pm 35.7 WNW 12 17 1006.8 - 0.0 - - - - - - -
21/02:00pm 35.4 WNW 12 17 1007.1 - 0.0 - - - - - - -
21/01:30pm 34.4 NW 14 20 1007.5 - 0.0 - - - - - - -
21/01:00pm 35.7 NW 13 19 1007.8 - 0.0 - - - - - - -
21/12:30pm 35.4 NW 13 17 1008.0 - 0.0 - - - - - - -
21/12:00pm 36.0 WNW 12 17 1008.2 - 0.0 - - - - - - -
21/11:30am 35.9 WNW 11 15 1008.5 - 0.0 - - - - - - -
21/11:00am 35.6 WNW 11 17 1008.9 - 0.0 - - - - - - -
21/10:30am 35.7 WNW 11 14 1009.2 - 0.0 - - - - - - -
21/10:00am 35.1 W 10 15 1009.5 - 0.0 - - - - - - -
21/09:30am 34.5 WNW 11 15 1009.8 - 0.0 - - - - - - -
21/09:00am 34.1 W 11 15 1009.8 - 0.0 - - - - - - -
21/08:30am 33.6 W 9 13 1009.9 - 0.0 - - - - - - -
21/08:00am 32.1 W 11 15 1009.9 - 0.0 - - - - - - -
21/07:30am 30.6 W 12 16 1009.9 - 0.0 - - - - - - -
21/07:00am 29.9 W 7 10 1009.6 - 0.0 - - - - - - -
21/06:30am 28.2 WSW 7 11 1009.2 - 0.0 - - - - - - -
21/06:00am 26.5 WSW 7 9 1008.9 - 0.0 - - - - - - -
21/05:30am 24.7 SW 6 8 1008.6 - 0.0 - - - - - - -
21/05:00am 24.4 WSW 6 7 1008.5 - 0.0 - - - - - - -
21/04:30am 24.9 WSW 5 7 1008.5 - 0.0 - - - - - - -
21/04:00am 25.5 WSW 7 9 1008.2 - 0.0 - - - - - - -
21/03:30am 25.7 WSW 7 9 1008.2 - 0.0 - - - - - - -
21/03:00am 25.5 WSW 6 8 1008.2 - 0.0 - - - - - - -
21/02:30am 25.9 WSW 5 6 1008.1 - 0.0 - - - - - - -
21/02:00am 26.9 W 6 9 1008.1 - 0.0 - - - - - - -
21/01:30am 27.2 W 7 9 1008.0 - 0.0 - - - - - - -
21/01:00am 27.3 W 6 8 1008.3 - 0.0 - - - - - - -
21/12:30am 27.6 W 7 9 1008.5 - 0.0 - - - - - - -
21/12:00am 27.5 W 7 9 1008.8 - 0.0 - - - - - - -
 
Date/Time
WST
Temp

°C
Wind Pressure Rain
since 9am
mm
Weather Cloud Vis
km
Sea
Height
m
Swell
Dir
 
Speed
knots
Gust
knots
hPa Trend Height
m
Period
s
Dir
20/11:30pm 27.4 W 5 7 1009.1 - 0.0 - - - - - - -
20/11:00pm 27.4 W 5 7 1009.4 - 0.0 - - - - - - -
20/10:30pm 27.5 W 5 6 1009.7 - 0.0 - - - - - - -
20/10:00pm 27.5 W 5 7 1009.7 - 0.0 - - - - - - -
20/09:30pm 27.7 WNW 5 6 1009.6 - 0.0 - - - - - - -
20/09:00pm 28.4 W 6 7 1009.5 - 0.0 - - - - - - -
20/08:30pm 28.8 W 7 8 1009.2 - 0.0 - - - - - - -
20/08:00pm 29.1 W 7 9 1008.9 - 0.0 - - - - - - -
20/07:30pm 29.3 W 7 11 1008.6 - 0.0 - - - - - - -
20/07:00pm 29.5 WNW 8 11 1008.2 - 0.0 - - - - - - -
20/06:30pm 29.6 WNW 8 11 1007.9 - 0.0 - - - - - - -
20/06:00pm 30.0 NW 11 16 1007.5 - 0.0 - - - - - - -
20/05:30pm 30.8 NW 11 15 1007.3 - 0.0 - - - - - - -
20/05:00pm 31.4 NW 12 17 1007.1 - 0.0 - - - - - - -
20/04:30pm 31.3 NW 13 18 1007.0 - 0.0 - - - - - - -
20/04:00pm 33.2 NW 13 17 1006.9 - 0.0 - - - - - - -
20/03:30pm 33.4 NW 12 17 1007.0 - 0.0 - - - - - - -
20/03:00pm 34.1 NNW 13 18 1007.2 - 0.0 - - - - - - -
20/02:30pm 35.4 NW 13 18 1007.3 - 0.0 - - - - - - -
20/02:00pm 35.1 NNW 14 18 1007.6 - 0.0 - - - - - - -
20/01:30pm 36.2 NNW 13 18 1007.9 - 0.0 - - - - - - -
20/01:00pm 36.7 NNW 13 18 1008.2 - 0.0 - - - - - - -
20/12:30pm 38.3 NNW 11 15 1008.5 - 0.0 - - - - - - -
20/12:00pm 37.5 NNW 10 14 1009.0 - 0.0 - - - - - - -
20/11:30am 37.3 NNW 9 13 1009.5 - 0.0 - - - - - - -
20/11:00am 37.3 NNW 9 13 1009.8 - 0.0 - - - - - - -
20/10:30am 37.8 NW 8 11 1010.1 - 0.0 - - - - - - -
20/10:00am 39.0 WNW 4 8 1010.3 - 0.0 - - - - - - -
20/09:30am 37.5 NNE 2 5 1010.7 - 0.0 - - - - - - -
20/09:00am 36.4 SSE 6 10 1010.9 - - - - - - - - -
20/08:30am 35.1 S 6 11 1011.0 - - - - - - - - -
20/08:00am 33.3 S 7 11 1010.9 - - - - - - - - -
20/07:30am 31.7 SW 7 11 1010.9 - - - - - - - - -
20/07:00am 30.0 SW 7 11 1010.6 - - - - - - - - -
20/06:30am 27.4 WSW 6 8 1010.5 - - - - - - - - -
20/06:00am 26.2 WSW 6 9 1010.2 - - - - - - - - -
20/05:30am 25.4 WSW 7 9 1009.7 - - - - - - - - -
20/05:00am 25.3 WSW 7 9 1009.5 - - - - - - - - -
20/04:30am 25.4 WSW 6 8 1009.4 - - - - - - - - -
20/04:00am 25.9 WSW 7 9 1009.3 - - - - - - - - -
20/03:30am 26.2 WSW 8 11 1009.3 - - - - - - - - -
20/03:00am 25.9 WSW 7 9 1009.2 - - - - - - - - -
20/02:30am 25.6 WSW 7 9 1009.3 - - - - - - - - -
20/02:00am 25.9 WSW 7 9 1009.2 - - - - - - - - -
20/01:30am 24.9 SW 5 7 1009.4 - - - - - - - - -
20/01:00am 24.7 WSW 5 6 1009.6 - - - - - - - - -
20/12:30am 24.6 W 3 4 1009.9 - - - - - - - - -
20/12:00am 25.0 CALM 0 3 1010.2 - - - - - - - - -
 
Date/Time
WST
Temp

°C
Wind Pressure Rain
since 9am
mm
Weather Cloud Vis
km
Sea
Height
m
Swell
Dir
 
Speed
knots
Gust
knots
hPa Trend Height
m
Period
s
Dir
19/11:30pm 26.1 WSW 5 6 1010.2 - - - - - - - - -
19/11:00pm 26.4 W 5 6 1010.6 - - - - - - - - -
19/10:30pm 27.2 W 4 5 1010.9 - - - - - - - - -
19/10:00pm 27.8 W 6 8 1010.8 - - - - - - - - -
19/09:30pm 28.0 W 5 8 1010.6 - - - - - - - - -
19/09:00pm 28.4 W 7 10 1010.4 - - - - - - - - -
19/08:30pm 28.6 W 8 11 1010.4 - - - - - - - - -
19/08:00pm 28.2 WNW 5 7 1010.1 - - - - - - - - -
19/07:30pm 28.7 WNW 7 9 1009.9 - - - - - - - - -
19/07:00pm 29.0 WNW 7 13 1009.6 - - - - - - - - -
19/06:30pm 29.4 WNW 8 12 1009.3 - - - - - - - - -
19/06:00pm 30.4 WNW 11 16 1009.1 - - - - - - - - -
19/05:30pm 31.5 WNW 12 18 1008.9 - - - - - - - - -
19/05:00pm 32.2 WNW 13 19 1008.7 - - - - - - - - -
19/04:30pm 32.6 WNW 15 20 1008.6 - - - - - - - - -
19/04:00pm 33.3 WNW 14 20 1008.5 - - - - - - - - -
19/03:30pm 33.6 NW 13 18 1008.5 - - - - - - - - -
19/03:00pm 33.5 NW 15 21 1008.7 - - - - - - - - -
19/02:30pm 34.4 NW 15 21 1008.9 - - - - - - - - -
19/02:00pm 34.8 NW 14 19 1009.1 - - - - - - - - -
19/10:30am 37.6 NNW 9 12 1011.0 - 0.0 - - - - - - -
19/10:00am 36.3 NW 10 14 1011.2 - 0.0 - - - - - - -
19/09:30am 37.4 SW 7 12 1011.5 - 0.0 - - - - - - -
19/09:00am 36.3 WSW 10 14 1011.6 - 0.0 - - - - - - -
19/08:30am 35.2 SW 10 13 1011.9 - 0.0 - - - - - - -
19/08:00am 33.5 SW 7 13 1012.2 - 0.0 - - - - - - -
19/07:30am 31.5 SW 7 10 1012.4 - 0.0 - - - - - - -
19/07:00am 28.7 WSW 5 7 1012.3 - 0.0 - - - - - - -
19/06:30am 26.8 W 3 5 1011.9 - 0.0 - - - - - - -
19/06:00am 24.8 W 4 5 1011.4 - 0.0 - - - - - - -
19/05:30am 23.7 WSW 6 7 1010.9 - 0.0 - - - - - - -
19/05:00am 22.4 W 2 5 1010.7 - 0.0 - - - - - - -
19/04:30am 23.0 CALM 0 3 1010.5 - 0.0 - - - - - - -
19/04:00am 24.4 SW 5 5 1010.2 - 0.0 - - - - - - -
19/03:30am 24.6 WSW 4 6 1010.1 - 0.0 - - - - - - -

Other Formats:

Comma delimited format used in spreadsheet applications
http://www.bom.gov.au/fwo/IDW60701/IDW60701.94200.axf

JavaScript Object Notation format (JSON) in row-major order
http://www.bom.gov.au/fwo/IDW60701/IDW60701.94200.json